Time;durP1;ratioP1;P1;durP2;ratioP2;P2;SDS_P1;SDS_P2;PMS_P1;PMS_P2;Temp;Humidity;BMP_temperature;BMP_pressure;BME280_temperature;BME280_humidity;BME280_pressure;Samples;Min_cycle;Max_cycle;Signal;HPM_P1;HPM_P2
2023/03/12 00:00:30;;;;;;;5.43;1.40;;;;;;;14.78;nan;100160.25;4997113;28;20582;-84
2023/03/12 00:02:55;;;;;;;4.70;1.30;;;;;;;14.79;nan;100156.69;5012696;28;20018;-84
2023/03/12 00:05:21;;;;;;;5.35;1.52;;;;;;;14.80;nan;100160.22;5000115;28;20035;-83
2023/03/12 00:07:47;;;;;;;4.28;1.30;;;;;;;14.79;nan;100154.03;4984221;28;20031;-79
2023/03/12 00:10:13;;;;;;;4.87;1.30;;;;;;;14.80;nan;100153.13;4985436;28;20081;-81
2023/03/12 00:12:38;;;;;;;4.10;1.20;;;;;;;14.79;nan;100148.72;4987768;28;20030;-82
2023/03/12 00:15:05;;;;;;;4.80;1.07;;;;;;;14.77;nan;100153.19;5007445;28;20402;-82
2023/03/12 00:17:30;;;;;;;3.58;1.20;;;;;;;14.77;nan;100143.47;5003150;28;20022;-80
2023/03/12 00:19:56;;;;;;;4.30;1.10;;;;;;;14.77;nan;100134.63;5003428;28;20037;-77
2023/03/12 00:22:24;;;;;;;3.90;1.30;;;;;;;14.78;nan;100144.34;5003062;28;20019;-78
2023/03/12 00:24:55;;;;;;;3.65;1.15;;;;;;;14.77;nan;100137.28;4992863;28;20105;-78
2023/03/12 00:27:23;;;;;;;4.50;1.00;;;;;;;14.78;nan;100129.31;4985015;28;20058;-78
2023/03/12 00:29:49;;;;;;;3.55;1.20;;;;;;;14.79;nan;100135.47;4983480;28;20484;-78
2023/03/12 00:32:15;;;;;;;4.70;1.27;;;;;;;14.78;nan;100139.03;4998410;28;20435;-79
2023/03/12 00:34:41;;;;;;;4.82;1.50;;;;;;;14.77;nan;100134.63;5002235;28;20034;-79
2023/03/12 00:37:07;;;;;;;4.28;1.50;;;;;;;14.77;nan;100137.28;4995950;28;20057;-79
2023/03/12 00:39:33;;;;;;;4.83;1.60;;;;;;;14.74;nan;100147.97;5009387;28;20029;-79
2023/03/12 00:41:58;;;;;;;5.10;1.50;;;;;;;14.73;nan;100154.19;5008357;28;20022;-79
2023/03/12 00:44:23;;;;;;;4.90;1.27;;;;;;;14.72;nan;100160.38;5002361;28;20435;-80
2023/03/12 00:46:49;;;;;;;4.90;1.55;;;;;;;14.71;nan;100154.22;5003267;28;20517;-79
2023/03/12 00:49:14;;;;;;;4.40;1.40;;;;;;;14.72;nan;100160.38;5002279;28;20050;-79
2023/03/12 00:51:40;;;;;;;4.70;1.33;;;;;;;14.73;nan;100154.19;5003377;28;20030;-81
2023/03/12 00:54:05;;;;;;;4.80;1.40;;;;;;;14.73;nan;100151.53;5003706;28;20054;-79
2023/03/12 00:56:32;;;;;;;6.35;1.50;;;;;;;14.72;nan;100153.31;4999706;28;20026;-79
2023/03/12 00:58:57;;;;;;;4.40;1.40;;;;;;;14.67;nan;100151.63;5004127;28;20030;-79
2023/03/12 01:01:23;;;;;;;3.95;1.42;;;;;;;14.64;nan;100153.47;5000832;28;20045;-78
2023/03/12 01:03:52;;;;;;;6.00;1.30;;;;;;;14.66;nan;100160.50;4991980;28;20050;-79
2023/03/12 01:06:18;;;;;;;5.05;1.20;;;;;;;14.64;nan;100166.72;4995073;28;20022;-78
2023/03/12 01:08:43;;;;;;;5.70;1.40;;;;;;;14.66;nan;100171.09;4984645;28;20101;-79
2023/03/12 01:11:13;;;;;;;5.40;1.20;;;;;;;14.63;nan;100167.63;4998330;28;20541;-79
2023/03/12 01:13:38;;;;;;;3.60;1.17;;;;;;;14.66;nan;100160.50;4984052;28;20386;-79
2023/03/12 01:16:04;;;;;;;4.20;1.40;;;;;;;14.64;nan;100169.34;4992242;28;20178;-79
2023/03/12 01:18:30;;;;;;;3.97;1.10;;;;;;;14.64;nan;100169.34;4994177;28;20026;-78
2023/03/12 01:20:55;;;;;;;12.90;6.93;;;;;;;14.66;nan;100165.81;4996459;28;20034;-79
2023/03/12 01:23:21;;;;;;;4.90;1.90;;;;;;;14.67;nan;100172.84;4983633;28;20033;-79
2023/03/12 01:25:46;;;;;;;7.43;2.77;;;;;;;14.68;nan;100171.94;4983087;28;20498;-79
2023/03/12 01:28:12;;;;;;;4.73;1.60;;;;;;;14.69;nan;100178.97;4983944;28;20038;-79
2023/03/12 01:30:37;;;;;;;6.23;2.03;;;;;;;14.69;nan;100181.63;4991413;28;20045;-79
2023/03/12 01:33:03;;;;;;;3.80;1.58;;;;;;;14.67;nan;100192.25;5000801;28;20028;-78
2023/03/12 01:35:28;;;;;;;6.00;1.50;;;;;;;14.64;nan;100190.56;5001652;28;20458;-79
2023/03/12 01:37:54;;;;;;;4.10;1.30;;;;;;;14.63;nan;100194.13;4999632;28;20026;-78
2023/03/12 01:40:24;;;;;;;4.72;1.63;;;;;;;14.62;nan;100191.50;5007771;28;20029;-79
2023/03/12 01:42:57;;;;;;;4.05;1.20;;;;;;;14.61;nan;100190.63;4988630;28;20165;-79
2023/03/12 01:46:02;;;;;;;4.57;1.30;;;;;;;14.56;nan;100183.69;4994008;28;20490;-78
2023/03/12 01:48:47;;;;;;;3.67;1.30;;;;;;;14.56;nan;100181.88;4989712;28;20022;-78
2023/03/12 01:51:14;;;;;;;3.87;1.20;;;;;;;14.53;nan;100184.59;4998596;28;20505;-78
2023/03/12 01:53:44;;;;;;;4.18;1.10;;;;;;;14.50;nan;100182.03;4997648;28;20022;-79
2023/03/12 01:56:11;;;;;;;3.50;1.00;;;;;;;14.49;nan;100185.59;4997218;28;20058;-78
2023/03/12 01:58:41;;;;;;;4.05;0.90;;;;;;;14.45;nan;100183.91;5001769;28;20030;-79
2023/03/12 02:01:07;;;;;;;4.00;0.95;;;;;;;14.43;nan;100173.34;4997188;28;20295;-79
2023/03/12 02:03:34;;;;;;;3.63;1.20;;;;;;;14.42;nan;100181.34;4989770;28;20085;-79
2023/03/12 02:06:07;;;;;;;3.20;1.15;;;;;;;14.42;nan;100173.38;4994894;28;20022;-79
2023/03/12 02:08:39;;;;;;;3.78;1.23;;;;;;;14.42;nan;100171.59;4996374;28;20106;-79
2023/03/12 02:11:05;;;;;;;4.65;1.20;;;;;;;14.45;nan;100173.31;4998031;28;20046;-79
2023/03/12 02:13:31;;;;;;;3.05;0.90;;;;;;;14.44;nan;100171.56;4994661;28;20085;-79
2023/03/12 02:15:56;;;;;;;3.27;0.97;;;;;;;14.45;nan;100165.38;4994974;28;20022;-79
2023/03/12 02:18:22;;;;;;;3.10;0.80;;;;;;;14.47;nan;100171.50;4997419;28;20026;-79
2023/03/12 02:21:14;;;;;;;3.33;0.80;;;;;;;14.47;nan;100171.50;4996569;28;20337;-78
2023/03/12 02:24:12;;;;;;;3.05;0.65;;;;;;;14.44;nan;100176.88;4976659;28;20047;-79
2023/03/12 02:26:38;;;;;;;2.90;0.57;;;;;;;14.45;nan;100175.97;4977940;28;20506;-79
2023/03/12 02:29:05;;;;;;;3.33;0.70;;;;;;;14.46;nan;100175.06;4997613;28;20058;-78
2023/03/12 02:31:37;;;;;;;2.42;0.50;;;;;;;14.44;nan;100172.44;4996453;28;20085;-79
2023/03/12 02:34:03;;;;;;;4.28;0.70;;;;;;;14.45;nan;100173.31;4998060;28;20030;-79
2023/03/12 02:36:28;;;;;;;4.00;0.80;;;;;;;14.45;nan;100170.66;4996725;28;20102;-78
2023/03/12 02:38:55;;;;;;;3.58;0.70;;;;;;;14.44;nan;100176.88;5003206;28;20029;-78
2023/03/12 02:41:30;;;;;;;2.60;0.60;;;;;;;14.41;nan;100193.69;5001772;28;20085;-78
2023/03/12 02:44:10;;;;;;;2.88;0.70;;;;;;;14.39;nan;100189.34;4997565;28;20029;-79
2023/03/12 02:46:40;;;;;;;3.35;0.50;;;;;;;14.37;nan;100191.16;4997935;28;20034;-79
2023/03/12 02:49:06;;;;;;;2.70;0.50;;;;;;;14.36;nan;100203.53;4995900;28;20030;-79
2023/03/12 02:51:31;;;;;;;5.67;1.30;;;;;;;14.35;nan;100207.97;4978154;28;20526;-79
2023/03/12 02:53:57;;;;;;;2.23;0.40;;;;;;;14.34;nan;100195.59;4978062;28;20067;-79
2023/03/12 02:56:25;;;;;;;2.88;0.40;;;;;;;14.34;nan;100197.38;4978008;28;20023;-78
2023/03/12 02:58:50;;;;;;;2.33;0.30;;;;;;;14.32;nan;100193.91;5000300;28;20038;-79
2023/03/12 03:01:16;;;;;;;1.20;0.20;;;;;;;14.32;nan;100191.25;4999491;28;20062;-79
2023/03/12 03:03:42;;;;;;;2.05;0.40;;;;;;;14.26;nan;100188.75;4990368;28;20021;-79
2023/03/12 03:06:08;;;;;;;2.90;0.40;;;;;;;14.18;nan;100192.38;4996154;28;20108;-79
2023/03/12 03:08:33;;;;;;;2.33;0.50;;;;;;;14.16;nan;100203.94;4996095;28;20018;-79
2023/03/12 03:11:01;;;;;;;2.63;0.30;;;;;;;14.15;nan;100208.34;4988861;28;20086;-79
2023/03/12 03:13:27;;;;;;;2.80;0.30;;;;;;;14.18;nan;100202.13;4977598;28;20035;-79
2023/03/12 03:15:53;;;;;;;2.42;0.40;;;;;;;14.20;nan;100205.63;4993300;28;20077;-79
2023/03/12 03:18:18;;;;;;;3.80;0.30;;;;;;;14.20;nan;100216.22;4997286;28;20030;-78
2023/03/12 03:20:44;;;;;;;2.03;0.30;;;;;;;14.23;nan;100216.16;4979345;28;20037;-79
2023/03/12 03:23:09;;;;;;;2.40;0.30;;;;;;;14.25;nan;100216.13;4978026;28;20033;-79
2023/03/12 03:25:34;;;;;;;2.92;0.30;;;;;;;14.27;nan;100217.81;4977995;28;20045;-79
2023/03/12 03:28:00;;;;;;;3.07;0.30;;;;;;;14.27;nan;100219.63;4977468;28;20030;-79
2023/03/12 03:30:25;;;;;;;2.00;0.30;;;;;;;14.24;nan;100219.69;4984567;28;20111;-79
2023/03/12 03:32:51;;;;;;;2.23;0.40;;;;;;;14.24;nan;100217.03;4996953;28;20031;-79
2023/03/12 03:35:16;;;;;;;2.22;0.30;;;;;;;14.24;nan;100220.53;4995943;28;20040;-79
2023/03/12 03:37:42;;;;;;;1.70;0.30;;;;;;;14.23;nan;100216.16;4995856;28;20031;-79
2023/03/12 03:40:11;;;;;;;2.10;0.30;;;;;;;14.20;nan;100226.81;5003084;28;20594;-79
2023/03/12 03:42:37;;;;;;;1.80;0.30;;;;;;;14.20;nan;100232.94;4997780;28;20023;-78
2023/03/12 03:45:04;;;;;;;2.30;0.22;;;;;;;14.21;nan;100241.78;4995909;28;20058;-79
2023/03/12 03:47:29;;;;;;;2.45;0.28;;;;;;;14.20;nan;100242.69;4997178;28;20026;-79
2023/03/12 03:49:55;;;;;;;1.43;0.30;;;;;;;14.20;nan;100248.00;4997023;28;20041;-78
2023/03/12 03:52:20;;;;;;;1.40;0.30;;;;;;;14.18;nan;100242.72;4996826;28;20026;-79
2023/03/12 03:54:45;;;;;;;1.93;0.40;;;;;;;14.19;nan;100251.53;4996058;28;20034;-79
2023/03/12 03:57:11;;;;;;;2.00;0.30;;;;;;;14.19;nan;100251.53;5001028;28;20082;-79
2023/03/12 03:59:36;;;;;;;2.17;0.30;;;;;;;14.15;nan;100256.00;4996834;28;20285;-79
2023/03/12 04:02:01;;;;;;;1.87;0.30;;;;;;;14.13;nan;100264.91;4998443;28;20124;-78
2023/03/12 04:04:27;;;;;;;2.13;0.30;;;;;;;14.13;nan;100267.56;4991770;28;20033;-78
2023/03/12 04:06:53;;;;;;;2.15;0.32;;;;;;;14.10;nan;100260.53;4982446;28;20049;-78
2023/03/12 04:09:18;;;;;;;2.63;0.30;;;;;;;14.05;nan;100265.91;4977441;28;20114;-78
2023/03/12 04:11:43;;;;;;;1.90;0.30;;;;;;;13.96;nan;100275.78;4977257;28;20093;-79
2023/03/12 04:14:09;;;;;;;2.13;0.40;;;;;;;13.92;nan;100275.00;4977334;28;20031;-78
2023/03/12 04:16:34;;;;;;;2.23;0.30;;;;;;;13.87;nan;100277.69;5000269;28;20034;-78
2023/03/12 04:18:59;;;;;;;2.45;0.40;;;;;;;13.84;nan;100277.75;4996878;28;20101;-78
2023/03/12 04:21:25;;;;;;;3.30;0.30;;;;;;;13.85;nan;100283.91;4990819;28;20034;-78
2023/03/12 04:23:50;;;;;;;4.30;0.40;;;;;;;13.85;nan;100291.84;4977050;28;20027;-78
2023/03/12 04:26:16;;;;;;;2.97;0.30;;;;;;;13.88;nan;100286.53;4977263;28;20119;-78
2023/03/12 04:28:41;;;;;;;3.05;0.30;;;;;;;13.91;nan;100283.81;4980547;28;20027;-78
2023/03/12 04:31:09;;;;;;;1.67;0.20;;;;;;;13.92;nan;100291.72;4992863;28;20034;-78
2023/03/12 04:33:37;;;;;;;3.00;0.38;;;;;;;13.95;nan;100285.53;4992561;28;20031;-78
2023/03/12 04:36:02;;;;;;;2.75;0.30;;;;;;;13.97;nan;100296.06;4980656;28;20035;-78
2023/03/12 04:38:29;;;;;;;2.47;0.30;;;;;;;13.98;nan;100305.75;4984429;28;20037;-78
2023/03/12 04:41:13;;;;;;;3.25;0.30;;;;;;;13.94;nan;100294.38;5006713;28;20053;-78
2023/03/12 04:43:39;;;;;;;1.50;0.20;;;;;;;14.02;nan;100296.88;4999821;28;20031;-77
2023/03/12 04:46:05;;;;;;;3.20;0.30;;;;;;;14.03;nan;100293.31;4999918;28;20030;-78
2023/03/12 04:48:31;;;;;;;2.92;0.40;;;;;;;14.04;nan;100298.56;4998776;28;20471;-78
2023/03/12 04:50:57;;;;;;;12.52;1.08;;;;;;;13.98;nan;100301.34;4999958;28;20034;-78
2023/03/12 04:53:23;;;;;;;14.00;1.20;;;;;;;13.87;nan;100303.31;4999840;28;20027;-79
2023/03/12 04:55:49;;;;;;;14.77;1.20;;;;;;;13.72;nan;100307.06;4999767;28;20030;-79
2023/03/12 04:58:14;;;;;;;11.13;1.10;;;;;;;13.59;nan;100309.03;5003667;28;20034;-79
2023/03/12 05:00:40;;;;;;;9.00;0.93;;;;;;;13.43;nan;100313.69;5002428;28;20050;-79
2023/03/12 05:03:06;;;;;;;15.35;1.25;;;;;;;13.32;nan;100329.69;4993556;28;20431;-79
2023/03/12 05:05:33;;;;;;;10.23;1.27;;;;;;;13.21;nan;100321.91;4999276;28;20030;-78
2023/03/12 05:07:59;;;;;;;21.73;2.03;;;;;;;13.10;nan;100324.69;4999640;28;20030;-78
2023/03/12 05:10:24;;;;;;;18.38;1.27;;;;;;;13.03;nan;100329.22;4998213;28;20551;-78
2023/03/12 05:12:51;;;;;;;14.30;1.52;;;;;;;13.01;nan;100333.63;4998229;28;20065;-79
2023/03/12 05:15:16;;;;;;;16.63;1.60;;;;;;;13.00;nan;100336.31;5002435;28;20034;-79
2023/03/12 05:17:43;;;;;;;21.00;1.40;;;;;;;12.97;nan;100331.91;4998417;28;20030;-78
2023/03/12 05:20:09;;;;;;;18.30;1.52;;;;;;;12.95;nan;100336.34;4997936;28;20034;-79
2023/03/12 05:22:34;;;;;;;16.02;1.50;;;;;;;12.95;nan;100348.72;4982456;28;20035;-79
2023/03/12 05:25:00;;;;;;;18.67;1.53;;;;;;;12.92;nan;100347.88;4979526;28;20081;-79
2023/03/12 05:27:25;;;;;;;16.13;1.40;;;;;;;12.89;nan;100333.81;4989932;28;20038;-80
2023/03/12 05:29:51;;;;;;;18.08;1.40;;;;;;;12.85;nan;100338.25;4983469;28;20026;-79
2023/03/12 05:32:17;;;;;;;16.97;1.20;;;;;;;12.83;nan;100349.75;4997729;28;20039;-80
2023/03/12 05:34:42;;;;;;;15.27;1.40;;;;;;;12.82;nan;100343.56;4999055;28;20406;-79
2023/03/12 05:37:08;;;;;;;15.40;1.30;;;;;;;12.79;nan;100333.03;4999169;28;20031;-79
2023/03/12 05:39:33;;;;;;;22.17;1.50;;;;;;;12.83;nan;100334.75;5005164;28;20031;-79
2023/03/12 05:41:59;;;;;;;19.10;1.53;;;;;;;12.84;nan;100340.91;5000767;28;20030;-79
2023/03/12 05:44:25;;;;;;;17.85;1.48;;;;;;;12.85;nan;100340.03;4999109;28;20102;-79
2023/03/12 05:46:52;;;;;;;20.60;1.52;;;;;;;12.83;nan;100345.31;4997613;28;20122;-79
2023/03/12 05:49:18;;;;;;;18.73;1.40;;;;;;;12.84;nan;100352.34;4998925;28;20057;-78
2023/03/12 05:51:45;;;;;;;19.13;1.73;;;;;;;12.84;nan;100336.50;4998708;28;20090;-78
2023/03/12 05:54:10;;;;;;;17.63;1.42;;;;;;;12.84;nan;100331.19;4998513;28;20034;-79
2023/03/12 05:56:36;;;;;;;21.80;1.73;;;;;;;12.84;nan;100341.78;4999318;28;20036;-79
2023/03/12 05:59:02;;;;;;;16.92;1.73;;;;;;;12.83;nan;100350.59;4997763;28;20053;-79
2023/03/12 06:01:28;;;;;;;22.53;2.10;;;;;;;12.83;nan;100355.88;4992319;28;20050;-79
2023/03/12 06:03:54;;;;;;;21.42;1.92;;;;;;;12.80;nan;100358.56;4992750;28;20030;-79
2023/03/12 06:06:21;;;;;;;28.17;2.47;;;;;;;12.77;nan;100348.91;4998498;28;20081;-79
2023/03/12 06:08:46;;;;;;;23.65;2.05;;;;;;;12.75;nan;100357.75;4998610;28;20033;-79
2023/03/12 06:11:12;;;;;;;16.53;1.77;;;;;;;12.71;nan;100356.03;4998509;28;20053;-79
2023/03/12 06:13:37;;;;;;;16.43;1.43;;;;;;;12.69;nan;100352.53;4996788;28;20289;-80
2023/03/12 06:16:11;;;;;;;20.20;1.80;;;;;;;12.64;nan;100345.53;5001031;28;20026;-79
2023/03/12 06:18:36;;;;;;;24.40;1.60;;;;;;;12.67;nan;100352.56;4998112;28;20398;-79
2023/03/12 06:21:10;;;;;;;18.55;1.50;;;;;;;12.69;nan;100349.91;4995561;28;20037;-78
2023/03/12 06:23:35;;;;;;;21.97;1.83;;;;;;;12.74;nan;100345.44;4978556;28;20046;-79
2023/03/12 06:26:01;;;;;;;21.27;1.90;;;;;;;12.75;nan;100341.91;4977396;28;20391;-79
2023/03/12 06:28:26;;;;;;;20.87;1.60;;;;;;;12.76;nan;100347.16;4977112;28;20093;-78
2023/03/12 06:30:53;;;;;;;19.97;1.70;;;;;;;12.79;nan;100356.81;4989177;28;20025;-78
2023/03/12 06:33:18;;;;;;;20.55;1.95;;;;;;;12.83;nan;100353.25;4998016;28;20073;-78
2023/03/12 06:35:44;;;;;;;19.87;2.10;;;;;;;12.84;nan;100351.50;4998296;28;20027;-79
2023/03/12 06:38:10;;;;;;;20.80;1.98;;;;;;;12.85;nan;100343.53;4998012;28;20192;-79
2023/03/12 06:40:35;;;;;;;22.27;1.73;;;;;;;12.88;nan;100359.34;5005932;28;20049;-78
2023/03/12 06:43:01;;;;;;;19.70;1.67;;;;;;;12.91;nan;100356.69;4997748;28;20474;-79
2023/03/12 06:45:26;;;;;;;18.33;1.90;;;;;;;12.94;nan;100353.09;4997937;28;20034;-78
2023/03/12 06:47:51;;;;;;;17.53;2.20;;;;;;;12.96;nan;100361.03;4996299;28;20030;-78
2023/03/12 06:50:17;;;;;;;18.10;2.37;;;;;;;13.00;nan;100365.38;4997768;28;20109;-78
2023/03/12 06:52:42;;;;;;;25.53;2.37;;;;;;;13.01;nan;100365.34;4997499;28;20502;-79
2023/03/12 06:55:08;;;;;;;20.83;2.40;;;;;;;13.04;nan;100375.03;4986009;28;20030;-78
2023/03/12 06:57:33;;;;;;;14.70;1.92;;;;;;;13.06;nan;100368.84;4989781;28;20101;-78
2023/03/12 06:59:58;;;;;;;22.07;2.10;;;;;;;13.11;nan;100375.81;4998319;28;20383;-79
2023/03/12 07:02:24;;;;;;;19.43;2.40;;;;;;;13.14;nan;100381.06;4998802;28;20073;-78
2023/03/12 07:04:49;;;;;;;18.70;1.77;;;;;;;13.18;nan;100373.09;5003031;28;20041;-78
2023/03/12 07:07:15;;;;;;;21.93;2.00;;;;;;;13.23;nan;100380.09;4999089;28;20297;-78
2023/03/12 07:09:41;;;;;;;24.20;1.67;;;;;;;13.28;nan;100383.53;4996110;28;20667;-78
2023/03/12 07:12:07;;;;;;;23.77;2.30;;;;;;;13.34;nan;100381.69;4997237;28;20109;-78
2023/03/12 07:14:33;;;;;;;25.15;1.63;;;;;;;13.41;nan;100394.81;4999323;28;20026;-79
2023/03/12 07:17:00;;;;;;;21.43;1.63;;;;;;;13.46;nan;100393.00;4998736;28;20030;-78
2023/03/12 07:19:28;;;;;;;16.83;1.63;;;;;;;13.46;nan;100391.25;4997318;28;20034;-78
2023/03/12 07:21:54;;;;;;;17.00;1.45;;;;;;;13.46;nan;100388.59;4987404;28;20033;-79
2023/03/12 07:24:19;;;;;;;21.10;1.60;;;;;;;13.52;nan;100397.34;4977634;28;20023;-78
2023/03/12 07:26:45;;;;;;;15.60;1.40;;;;;;;13.56;nan;100393.75;4977413;28;20031;-79
2023/03/12 07:29:10;;;;;;;22.80;2.03;;;;;;;13.59;nan;100388.41;4977953;28;20050;-79
2023/03/12 07:31:35;;;;;;;18.52;2.40;;;;;;;13.61;nan;100386.63;4993807;28;20105;-78
2023/03/12 07:34:01;;;;;;;14.27;2.37;;;;;;;13.66;nan;100384.81;4997362;28;20030;-78
2023/03/12 07:36:28;;;;;;;15.60;2.28;;;;;;;13.72;nan;100378.53;4997238;28;20022;-78
2023/03/12 07:38:54;;;;;;;13.23;1.90;;;;;;;13.84;nan;100377.47;5002651;28;20113;-78
2023/03/12 07:41:19;;;;;;;19.02;2.50;;;;;;;13.98;nan;100375.47;4999772;28;20030;-78
2023/03/12 07:43:45;;;;;;;18.13;2.17;;;;;;;14.10;nan;100378.81;4995750;28;20491;-78
2023/03/12 07:46:11;;;;;;;16.17;1.90;;;;;;;14.16;nan;100376.94;4997095;28;20276;-79
2023/03/12 07:48:37;;;;;;;18.90;2.15;;;;;;;14.25;nan;100381.19;4997258;28;20030;-78
2023/03/12 07:51:03;;;;;;;15.70;2.03;;;;;;;14.40;nan;100381.84;4992627;28;20035;-79
2023/03/12 07:53:28;;;;;;;14.23;2.67;;;;;;;14.53;nan;100378.03;4976365;28;20511;-78
2023/03/12 07:55:54;;;;;;;15.13;3.07;;;;;;;14.62;nan;100379.66;4977753;28;20033;-78
2023/03/12 07:58:19;;;;;;;16.52;3.40;;;;;;;14.74;nan;100383.88;4995957;28;20486;-78
2023/03/12 08:00:45;;;;;;;11.97;2.00;;;;;;;14.83;nan;100380.19;4999254;28;20096;-78
2023/03/12 08:03:11;;;;;;;13.10;2.40;;;;;;;14.85;nan;100383.66;4995709;28;20575;-78
2023/03/12 08:05:37;;;;;;;12.73;1.98;;;;;;;14.85;nan;100389.88;4998309;28;20030;-78
2023/03/12 08:08:03;;;;;;;10.63;2.40;;;;;;;14.88;nan;100383.59;4999530;28;20049;-79
2023/03/12 08:10:28;;;;;;;14.85;2.05;;;;;;;14.85;nan;100387.22;5000767;28;20033;-78
2023/03/12 08:12:54;;;;;;;16.10;2.20;;;;;;;14.87;nan;100388.06;5000614;28;20037;-78
2023/03/12 08:15:19;;;;;;;12.40;2.60;;;;;;;14.92;nan;100388.81;5004681;28;20018;-79
2023/03/12 08:17:45;;;;;;;13.00;2.63;;;;;;;14.99;nan;100386.94;5000772;28;20372;-78
2023/03/12 08:20:11;;;;;;;9.35;2.28;;;;;;;15.09;nan;100376.13;4999366;28;20498;-78
2023/03/12 08:22:37;;;;;;;13.63;3.10;;;;;;;15.20;nan;100382.09;4984988;28;20042;-78
2023/03/12 08:25:05;;;;;;;9.90;2.00;;;;;;;15.35;nan;100383.53;4997461;28;20041;-79
2023/03/12 08:27:31;;;;;;;8.27;1.45;;;;;;;15.43;nan;100375.38;4993831;28;20030;-79
2023/03/12 08:29:56;;;;;;;6.53;1.17;;;;;;;15.48;nan;100377.03;4996816;28;20034;-80
2023/03/12 08:32:22;;;;;;;4.83;1.00;;;;;;;15.55;nan;100384.84;4997355;28;20026;-79
2023/03/12 08:34:47;;;;;;;3.90;0.60;;;;;;;15.58;nan;100384.78;4991976;28;20023;-79
2023/03/12 08:37:13;;;;;;;4.23;0.40;;;;;;;15.61;nan;100387.38;4994593;28;20058;-80
2023/03/12 08:39:38;;;;;;;3.00;0.43;;;;;;;15.66;nan;100385.47;4994424;28;20026;-80
2023/03/12 08:42:04;;;;;;;2.33;0.40;;;;;;;15.63;nan;100381.09;4993843;28;20007;-80
2023/03/12 08:44:30;;;;;;;2.60;0.60;;;;;;;15.62;nan;100381.16;4994094;28;20483;-80
2023/03/12 08:46:56;;;;;;;3.95;0.40;;;;;;;15.63;nan;100388.22;4993603;28;20034;-79
2023/03/12 08:49:21;;;;;;;2.73;0.40;;;;;;;15.61;nan;100393.53;4991570;28;20105;-79
2023/03/12 08:51:47;;;;;;;3.50;0.30;;;;;;;15.64;nan;100397.91;4994430;28;20015;-78
2023/03/12 08:54:13;;;;;;;3.67;0.40;;;;;;;15.72;nan;100387.13;4995058;28;20124;-81
2023/03/12 08:56:41;;;;;;;2.60;0.57;;;;;;;15.89;nan;100389.41;5000947;28;20328;-79
2023/03/12 08:59:11;;;;;;;2.50;0.40;;;;;;;16.07;nan;100375.69;5013776;28;20021;-80
2023/03/12 09:01:36;;;;;;;2.73;0.50;;;;;;;16.28;nan;100380.47;4995494;28;20046;-78
2023/03/12 09:04:05;;;;;;;2.95;0.40;;;;;;;16.48;nan;100377.28;4994387;28;20015;-80
2023/03/12 09:06:32;;;;;;;2.47;0.50;;;;;;;16.57;nan;100379.72;4996161;28;20022;-80
2023/03/12 09:09:03;;;;;;;2.47;0.50;;;;;;;16.58;nan;100384.09;5003639;28;20022;-80
2023/03/12 09:11:30;;;;;;;3.08;0.50;;;;;;;16.56;nan;100388.59;5003453;28;20030;-79
2023/03/12 09:13:55;;;;;;;2.80;0.40;;;;;;;16.55;nan;100386.84;5000631;28;20026;-80
2023/03/12 09:16:21;;;;;;;2.80;0.40;;;;;;;16.51;nan;100382.50;5007381;28;20114;-79
2023/03/12 09:18:46;;;;;;;2.33;0.50;;;;;;;16.64;nan;100386.59;4984964;28;20274;-79
2023/03/12 09:21:16;;;;;;;2.70;0.50;;;;;;;16.88;nan;100397.47;4990480;28;20018;-79
2023/03/12 09:23:42;;;;;;;3.33;0.70;;;;;;;17.08;nan;100393.41;4981349;28;20517;-79
2023/03/12 09:26:11;;;;;;;2.57;0.50;;;;;;;17.21;nan;100397.41;5004094;28;20101;-79
2023/03/12 09:28:37;;;;;;;2.67;0.50;;;;;;;17.28;nan;100394.59;5003514;28;20533;-79
2023/03/12 09:31:05;;;;;;;3.00;0.47;;;;;;;17.32;nan;100396.25;4999442;28;20037;-79
2023/03/12 09:33:34;;;;;;;2.78;0.50;;;;;;;17.28;nan;100394.59;4997957;28;20026;-75
2023/03/12 09:36:00;;;;;;;4.22;0.65;;;;;;;17.33;nan;100392.66;4998171;28;20379;-81
2023/03/12 09:38:27;;;;;;;4.03;0.80;;;;;;;17.32;nan;100390.94;4994711;28;20030;-80
2023/03/12 09:40:54;;;;;;;2.80;0.50;;;;;;;17.18;nan;100381.56;5006324;28;20038;-80
2023/03/12 09:43:52;;;;;;;3.60;0.53;;;;;;;17.12;nan;100392.38;4991706;28;20023;-80
2023/03/12 09:46:32;;;;;;;2.90;0.60;;;;;;;17.22;nan;100401.81;4979037;28;20051;-80
2023/03/12 09:49:00;;;;;;;3.50;0.75;;;;;;;17.31;nan;100400.69;4979462;28;20112;-80
2023/03/12 09:51:40;;;;;;;2.90;0.52;;;;;;;17.26;nan;100396.44;4979545;28;20026;-80
2023/03/12 09:54:13;;;;;;;6.28;0.77;;;;;;;17.25;nan;100394.69;4978144;28;20033;-76
2023/03/12 09:56:39;;;;;;;3.47;0.60;;;;;;;17.42;nan;100399.50;4981812;28;20027;-72
2023/03/12 09:59:11;;;;;;;4.93;0.70;;;;;;;18.25;nan;100404.00;4992898;28;20041;-73
2023/03/12 10:01:39;;;;;;;3.38;0.60;;;;;;;19.61;nan;100387.50;4999388;28;20061;-75
2023/03/12 10:04:10;;;;;;;3.47;0.50;;;;;;;20.27;nan;100384.88;4993732;28;20030;-85
2023/03/12 10:06:46;;;;;;;2.03;0.40;;;;;;;20.31;nan;100389.16;4998728;28;20061;-76
2023/03/12 10:09:37;;;;;;;2.45;0.40;;;;;;;20.04;nan;100384.91;4997532;28;20022;-75
2023/03/12 10:12:21;;;;;;;2.22;0.40;;;;;;;20.07;nan;100381.25;4998916;28;20106;-77
2023/03/12 10:15:23;;;;;;;2.40;0.60;;;;;;;20.70;nan;100387.50;5004278;28;20025;-79
2023/03/12 10:18:15;;;;;;;3.27;1.30;;;;;;;22.20;nan;100388.50;4994143;28;20080;-75
2023/03/12 10:21:10;;;;;;;3.10;0.60;;;;;;;23.09;nan;100386.59;4985648;28;20030;-74
2023/03/12 10:24:06;;;;;;;2.13;0.50;;;;;;;22.92;nan;100385.69;4998603;28;20049;-76
2023/03/12 10:26:48;;;;;;;3.42;0.70;;;;;;;22.26;nan;100384.63;4987017;28;20018;-74
2023/03/12 10:29:27;;;;;;;3.42;0.73;;;;;;;21.67;nan;100384.84;4998459;28;20023;-73
2023/03/12 10:31:59;;;;;;;2.63;0.70;;;;;;;21.18;nan;100382.66;4993199;28;20027;-76
2023/03/12 10:34:31;;;;;;;3.97;0.93;;;;;;;21.01;nan;100375.41;4997463;28;20084;-79
2023/03/12 10:37:01;;;;;;;2.33;0.50;;;;;;;20.97;nan;100385.38;4988569;28;20045;-75
2023/03/12 10:39:27;;;;;;;2.35;0.55;;;;;;;20.96;nan;100382.78;4992317;28;20034;-76
2023/03/12 10:41:58;;;;;;;2.70;0.30;;;;;;;20.81;nan;100379.88;4992034;28;20026;-78
2023/03/12 10:45:18;;;;;;;2.20;0.50;;;;;;;20.51;nan;100377.59;5001590;28;20034;-78
2023/03/12 10:47:51;;;;;;;2.80;0.68;;;;;;;20.29;nan;100378.50;4985751;28;20034;-76
2023/03/12 10:50:29;;;;;;;2.30;0.50;;;;;;;20.12;nan;100376.56;4994782;28;20082;-78
2023/03/12 10:53:21;;;;;;;3.67;0.60;;;;;;;20.02;nan;100375.22;4991918;28;20030;-78
2023/03/12 10:56:02;;;;;;;3.38;0.88;;;;;;;19.92;nan;100370.25;4988633;28;20038;-80
2023/03/12 10:58:33;;;;;;;2.03;0.47;;;;;;;20.08;nan;100358.94;4995259;28;20053;-76
2023/03/12 11:01:01;;;;;;;2.78;0.70;;;;;;;20.69;nan;100357.16;4996644;28;20050;-77
2023/03/12 11:03:28;;;;;;;3.23;0.90;;;;;;;21.91;nan;100349.75;4989848;28;20029;-76
2023/03/12 11:05:57;;;;;;;4.18;0.80;;;;;;;24.60;nan;100346.56;4996686;28;20023;-78
2023/03/12 11:08:26;;;;;;;3.13;0.90;;;;;;;26.85;nan;100340.91;4997203;28;20093;-73
2023/03/12 11:10:52;;;;;;;2.50;0.60;;;;;;;28.87;nan;100342.09;4996865;28;20026;-74
2023/03/12 11:13:26;;;;;;;2.13;0.60;;;;;;;29.30;nan;100343.16;4996702;28;20031;-75
2023/03/12 11:15:53;;;;;;;2.60;0.80;;;;;;;29.44;nan;100340.19;5003154;28;20071;-76
2023/03/12 11:18:32;;;;;;;3.70;0.70;;;;;;;29.19;nan;100336.75;4997510;28;20104;-73
2023/03/12 11:21:09;;;;;;;2.92;0.50;;;;;;;28.18;nan;100346.53;4995565;28;20106;-75
2023/03/12 11:23:44;;;;;;;2.33;0.50;;;;;;;27.14;nan;100349.63;4978685;28;20029;-73
2023/03/12 11:26:21;;;;;;;3.42;0.50;;;;;;;26.38;nan;100349.53;4978422;28;20026;-73
2023/03/12 11:28:54;;;;;;;2.20;0.60;;;;;;;25.80;nan;100339.00;4988136;28;20052;-77
2023/03/12 11:31:30;;;;;;;3.13;0.60;;;;;;;25.45;nan;100343.06;4997704;28;20025;-73
2023/03/12 11:34:04;;;;;;;2.80;0.80;;;;;;;25.73;nan;100338.56;4996352;28;20022;-74
2023/03/12 11:36:55;;;;;;;2.40;0.60;;;;;;;26.08;nan;100338.00;4990858;28;20498;-73
2023/03/12 11:39:38;;;;;;;2.65;0.60;;;;;;;26.21;nan;100331.81;4991371;28;20057;-75
2023/03/12 11:42:19;;;;;;;2.80;0.77;;;;;;;25.59;nan;100336.81;5000938;28;20026;-77
2023/03/12 11:45:13;;;;;;;2.90;0.70;;;;;;;24.79;nan;100337.38;4987406;28;20117;-74